Time;durP1;ratioP1;P1;durP2;ratioP2;P2;SDS_P1;SDS_P2;PMS_P1;PMS_P2;Temp;Humidity;BMP_temperature;BMP_pressure;BME280_temperature;BME280_humidity;BME280_pressure;Samples;Min_cycle;Max_cycle;Signal;HPM_P1;HPM_P2
2023/01/21 00:01:26;;;;;;;;;;;;;;;0.36;79.98;102180.77;106278;1266;124791;-88
2023/01/21 00:04:00;;;;;;;;;;;;;;;0.35;79.86;102186.02;106308;1267;72772;-88
2023/01/21 00:06:35;;;;;;;;;;;;;;;0.33;80.04;102181.46;106100;1266;124889;-88
2023/01/21 00:09:03;;;;;;;;;;;;;;;0.30;80.08;102189.84;106370;1266;59434;-84
2023/01/21 00:11:32;;;;;;;;;;;;;;;0.26;80.37;102190.02;106454;1266;124973;-84
2023/01/21 00:13:59;;;;;;;;;;;;;;;0.22;80.15;102187.10;106425;1270;67148;-84
2023/01/21 00:16:26;;;;;;;;;;;;;;;0.20;80.43;102184.66;106584;1267;72575;-85
2023/01/21 00:18:55;;;;;;;;;;;;;;;0.19;80.28;102184.60;106328;1267;124978;-88
2023/01/21 00:21:22;;;;;;;;;;;;;;;0.18;80.36;102179.54;106391;1270;61285;-84
2023/01/21 00:23:49;;;;;;;;;;;;;;;0.17;80.66;102178.76;106371;1267;125187;-83
2023/01/21 00:26:28;;;;;;;;;;;;;;;0.18;80.81;102176.38;106563;1267;67301;-83
2023/01/21 00:28:55;;;;;;;;;;;;;;;0.22;80.95;102179.98;106531;1271;71439;-82
2023/01/21 00:31:35;;;;;;;;;;;;;;;0.24;81.09;102173.94;106394;1268;125368;-83
2023/01/21 00:34:04;;;;;;;;;;;;;;;0.21;80.94;102179.93;106350;1267;61824;-82
2023/01/21 00:36:31;;;;;;;;;;;;;;;0.21;80.98;102174.88;106445;1267;124853;-82
2023/01/21 00:38:58;;;;;;;;;;;;;;;0.19;81.29;102171.64;106787;1267;67375;-83
2023/01/21 00:41:25;;;;;;;;;;;;;;;0.25;81.37;102172.11;106757;1267;125002;-83
2023/01/21 00:43:55;;;;;;;;;;;;;;;0.27;81.48;102177.89;106677;1266;61233;-82
2023/01/21 00:46:21;;;;;;;;;;;;;;;0.30;81.48;102176.73;106840;1267;61339;-81
2023/01/21 00:48:49;;;;;;;;;;;;;;;0.32;81.68;102177.11;106531;1267;124825;-83
2023/01/21 00:51:16;;;;;;;;;;;;;;;0.33;81.42;102179.98;106619;1267;66308;-83
2023/01/21 00:53:45;;;;;;;;;;;;;;;0.32;81.69;102180.06;106439;1267;124774;-82
2023/01/21 00:56:14;;;;;;;;;;;;;;;0.33;81.72;102180.09;106541;1267;61346;-82
2023/01/21 00:58:44;;;;;;;;;;;;;;;0.32;81.80;102179.39;106462;1271;59690;-83
2023/01/21 01:01:21;;;;;;;;;;;;;;;0.32;81.89;102181.55;106392;1266;124711;-83
2023/01/21 01:03:57;;;;;;;;;;;;;;;0.32;82.15;102178.11;106330;1267;65748;-83
2023/01/21 01:06:31;;;;;;;;;;;;;;;0.32;82.01;102176.03;106413;1269;71249;-83
2023/01/21 01:09:04;;;;;;;;;;;;;;;0.31;81.87;102176.17;106368;1267;61325;-83
2023/01/21 01:11:38;;;;;;;;;;;;;;;0.31;82.24;102170.81;106342;1267;59529;-83
2023/01/21 01:14:05;;;;;;;;;;;;;;;0.33;82.27;102167.65;106416;1266;73525;-84
2023/01/21 01:16:54;;;;;;;;;;;;;;;0.35;82.52;102169.07;106365;1267;65581;-83
2023/01/21 01:19:22;;;;;;;;;;;;;;;0.35;82.49;102164.13;106513;1267;125030;-83
2023/01/21 01:21:55;;;;;;;;;;;;;;;0.34;82.69;102161.27;106589;1265;61154;-83
2023/01/21 01:24:37;;;;;;;;;;;;;;;0.34;82.66;102157.75;106442;1267;125093;-82
2023/01/21 01:27:04;;;;;;;;;;;;;;;0.34;82.85;102154.66;106389;1266;74812;-82
2023/01/21 01:29:39;;;;;;;;;;;;;;;0.34;82.70;102160.08;106037;1267;125053;-83
2023/01/21 01:32:12;;;;;;;;;;;;;;;0.36;82.93;102158.17;106384;1267;72766;-83
2023/01/21 01:34:39;;;;;;;;;;;;;;;0.40;82.65;102158.11;106578;1270;61235;-83
2023/01/21 01:37:07;;;;;;;;;;;;;;;0.43;82.81;102159.02;106487;1266;125428;-83
2023/01/21 01:39:34;;;;;;;;;;;;;;;0.45;82.91;102162.70;106114;1267;73426;-87
2023/01/21 01:42:12;;;;;;;;;;;;;;;0.47;82.73;102161.48;106165;1267;124869;-87
2023/01/21 01:44:48;;;;;;;;;;;;;;;0.55;83.12;102166.19;106294;1267;72573;-88
2023/01/21 01:47:15;;;;;;;;;;;;;;;0.60;82.92;102165.10;106286;1267;61227;-88
2023/01/21 01:50:11;;;;;;;;;;;;;;;0.65;82.96;102164.30;106261;1270;124633;-87
2023/01/21 01:52:46;;;;;;;;;;;;;;;0.69;82.85;102161.52;106204;1266;73842;-87
2023/01/21 01:55:14;;;;;;;;;;;;;;;0.75;82.76;102163.05;105963;1267;124830;-88
2023/01/21 01:57:44;;;;;;;;;;;;;;;0.80;82.82;102166.45;106494;1267;71459;-86
2023/01/21 02:00:12;;;;;;;;;;;;;;;0.87;82.82;102161.93;106433;1266;125038;-87
2023/01/21 02:02:41;;;;;;;;;;;;;;;0.92;82.81;102156.83;106343;1268;61290;-87
2023/01/21 02:05:10;;;;;;;;;;;;;;;0.96;82.74;102154.95;106468;1267;73424;-87
2023/01/21 02:07:40;;;;;;;;;;;;;;;1.01;82.70;102156.17;106169;1267;124658;-87
2023/01/21 02:10:20;;;;;;;;;;;;;;;1.05;82.57;102153.23;106646;1267;71499;-87
2023/01/21 02:12:52;;;;;;;;;;;;;;;1.10;82.51;102159.21;106351;1268;125031;-87
2023/01/21 02:15:21;;;;;;;;;;;;;;;1.17;82.61;102168.05;106491;1267;59681;-87
2023/01/21 02:17:54;;;;;;;;;;;;;;;1.23;82.55;102174.27;106438;1266;74713;-82
2023/01/21 02:20:36;;;;;;;;;;;;;;;1.29;82.64;102180.33;106684;1267;65833;-83
2023/01/21 02:23:09;;;;;;;;;;;;;;;1.35;82.55;102187.40;106858;1266;73405;-83
2023/01/21 02:25:55;;;;;;;;;;;;;;;1.41;82.50;102195.55;106483;1267;124835;-83
2023/01/21 02:28:41;;;;;;;;;;;;;;;1.50;82.27;102200.27;106499;1266;59400;-82
2023/01/21 02:31:12;;;;;;;;;;;;;;;1.60;82.27;102200.56;106758;1267;127544;-87
2023/01/21 02:33:57;;;;;;;;;;;;;;;1.70;82.29;102200.89;106917;1267;65526;-87
2023/01/21 02:36:40;;;;;;;;;;;;;;;1.81;82.25;102202.65;106563;1268;125353;-83
2023/01/21 02:39:20;;;;;;;;;;;;;;;1.90;81.95;102199.13;106892;1267;59426;-83
2023/01/21 02:42:00;;;;;;;;;;;;;;;1.97;81.69;102200.75;106746;1266;125056;-86
2023/01/21 02:44:49;;;;;;;;;;;;;;;2.06;81.87;102200.41;106688;1267;73480;-87
2023/01/21 02:47:16;;;;;;;;;;;;;;;2.13;81.57;102198.95;106511;1267;65832;-83
2023/01/21 02:50:00;;;;;;;;;;;;;;;2.19;81.51;102202.84;106829;1266;124815;-87
2023/01/21 02:52:33;;;;;;;;;;;;;;;2.23;81.29;102206.85;106810;1267;61316;-83
2023/01/21 02:55:00;;;;;;;;;;;;;;;2.26;81.07;102205.33;106758;1267;125096;-83
2023/01/21 02:57:47;;;;;;;;;;;;;;;2.29;81.01;102208.75;106828;1267;74824;-82
2023/01/21 03:00:22;;;;;;;;;;;;;;;2.32;80.71;102217.45;106684;1269;125016;-83
2023/01/21 03:03:01;;;;;;;;;;;;;;;2.36;80.77;102213.08;106902;1267;72737;-83
2023/01/21 03:05:28;;;;;;;;;;;;;;;2.38;80.69;102215.14;106695;1270;59457;-86
2023/01/21 03:08:20;;;;;;;;;;;;;;;2.39;80.64;102208.68;106826;1266;124824;-86
2023/01/21 03:10:49;;;;;;;;;;;;;;;2.40;80.50;102215.88;106496;1269;73612;-87
2023/01/21 03:19:33;;;;;;;;;;;;;;;2.38;80.20;102213.64;106160;1267;124875;-86
2023/01/21 03:22:01;;;;;;;;;;;;;;;2.39;80.16;102209.71;106409;1267;60109;-87
2023/01/21 03:24:42;;;;;;;;;;;;;;;2.39;80.23;102206.79;106181;1272;124893;-86
2023/01/21 03:27:10;;;;;;;;;;;;;;;2.40;80.05;102201.15;106307;1267;65947;-88
2023/01/21 03:29:45;;;;;;;;;;;;;;;2.39;79.73;102205.52;106036;1267;125067;-87
2023/01/21 03:32:13;;;;;;;;;;;;;;;2.40;79.86;102207.54;106388;1267;61410;-88
2023/01/21 03:34:43;;;;;;;;;;;;;;;2.41;79.69;102213.64;106352;1267;61278;-88
2023/01/21 03:37:29;;;;;;;;;;;;;;;2.40;79.71;102219.16;106552;1267;124448;-87
2023/01/21 03:40:02;;;;;;;;;;;;;;;2.40;79.66;102225.94;106837;1267;65773;-88
2023/01/21 03:42:30;;;;;;;;;;;;;;;2.40;79.51;102221.52;106131;1266;124838;-88
2023/01/21 03:45:20;;;;;;;;;;;;;;;2.39;79.49;102221.48;106123;1266;61250;-87
2023/01/21 03:47:51;;;;;;;;;;;;;;;2.40;79.35;102219.36;106464;1267;125107;-87
2023/01/21 03:50:34;;;;;;;;;;;;;;;2.42;79.15;102221.37;106567;1267;75254;-87
2023/01/21 03:53:23;;;;;;;;;;;;;;;2.45;79.18;102228.22;106396;1267;65908;-87
2023/01/21 03:55:50;;;;;;;;;;;;;;;2.48;78.97;102223.64;106632;1266;125431;-88
2023/01/21 03:58:17;;;;;;;;;;;;;;;2.49;78.77;102228.89;106818;1267;59841;-88
2023/01/21 04:01:00;;;;;;;;;;;;;;;2.48;78.39;102237.35;106566;1266;124524;-87
2023/01/21 04:03:55;;;;;;;;;;;;;;;2.47;78.46;102243.63;106426;1267;74375;-87
2023/01/21 04:06:23;;;;;;;;;;;;;;;2.45;78.30;102249.38;106157;1272;124293;-87
2023/01/21 04:08:53;;;;;;;;;;;;;;;2.44;77.91;102253.95;106446;1266;72898;-84
2023/01/21 04:11:21;;;;;;;;;;;;;;;2.45;77.56;102243.13;106577;1267;61291;-84
2023/01/21 04:13:48;;;;;;;;;;;;;;;2.47;77.59;102237.88;106648;1267;124679;-84
2023/01/21 04:16:15;;;;;;;;;;;;;;;2.47;77.61;102242.97;106728;1265;73389;-84
2023/01/21 04:18:50;;;;;;;;;;;;;;;2.48;77.29;102237.64;106756;1266;124299;-88
2023/01/21 04:21:17;;;;;;;;;;;;;;;2.47;77.12;102244.82;106717;1267;72656;-84
2023/01/21 04:23:52;;;;;;;;;;;;;;;2.46;76.93;102248.41;106325;1270;124261;-88
2023/01/21 04:26:21;;;;;;;;;;;;;;;2.45;77.01;102249.71;106574;1266;59859;-88
2023/01/21 04:29:03;;;;;;;;;;;;;;;2.46;76.72;102250.18;106566;1266;73988;-88
2023/01/21 04:31:42;;;;;;;;;;;;;;;2.47;76.72;102259.24;106435;1265;125336;-88
2023/01/21 04:34:09;;;;;;;;;;;;;;;2.48;76.38;102266.59;106326;1266;72779;-88
2023/01/21 04:36:38;;;;;;;;;;;;;;;2.49;76.29;102263.69;106405;1266;124584;-88
2023/01/21 04:39:12;;;;;;;;;;;;;;;2.50;76.13;102255.47;106498;1266;61310;-88
2023/01/21 04:41:39;;;;;;;;;;;;;;;2.51;76.28;102254.71;106363;1267;124537;-88
2023/01/21 04:44:16;;;;;;;;;;;;;;;2.52;76.27;102254.08;106449;1266;67759;-88
2023/01/21 04:46:49;;;;;;;;;;;;;;;2.49;76.14;102263.22;106575;1267;72654;-89
2023/01/21 04:49:44;;;;;;;;;;;;;;;2.46;75.60;102264.21;106421;1269;124941;-88
2023/01/21 04:52:13;;;;;;;;;;;;;;;2.46;75.34;102272.51;106493;1266;61239;-88
2023/01/21 04:54:43;;;;;;;;;;;;;;;2.45;75.20;102237.75;106551;1266;124279;-88
2023/01/21 04:57:12;;;;;;;;;;;;;;;2.45;75.07;102242.25;106632;1270;65910;-87
2023/01/21 04:59:39;;;;;;;;;;;;;;;2.45;74.78;102242.77;106576;1266;124668;-88
2023/01/21 05:02:07;;;;;;;;;;;;;;;2.43;74.76;102236.70;106604;1267;61298;-87
2023/01/21 05:04:35;;;;;;;;;;;;;;;2.42;74.75;102236.96;106735;1267;61215;-86
2023/01/21 05:07:02;;;;;;;;;;;;;;;2.39;74.84;102240.91;106906;1266;125245;-84
2023/01/21 05:09:30;;;;;;;;;;;;;;;2.36;74.89;102245.01;106573;1267;65558;-84
2023/01/21 05:11:58;;;;;;;;;;;;;;;2.35;74.81;102245.80;106545;1267;125023;-87
2023/01/21 05:14:25;;;;;;;;;;;;;;;2.35;74.82;102231.23;106424;1267;61278;-88
2023/01/21 05:17:11;;;;;;;;;;;;;;;2.35;74.59;102223.63;106474;1266;61192;-88
2023/01/21 05:19:39;;;;;;;;;;;;;;;2.36;74.45;102223.86;106729;1267;124588;-87
2023/01/21 05:22:15;;;;;;;;;;;;;;;2.34;74.12;102221.96;106777;1266;64654;-88
2023/01/21 05:24:44;;;;;;;;;;;;;;;2.33;73.90;102221.86;106563;1267;124796;-85
2023/01/21 05:27:15;;;;;;;;;;;;;;;2.34;74.17;102233.55;106441;1267;61178;-83
2023/01/21 05:29:52;;;;;;;;;;;;;;;2.35;74.15;102247.30;106537;1270;61308;-84
2023/01/21 05:32:26;;;;;;;;;;;;;;;2.35;74.19;102236.09;106621;1267;73062;-86
2023/01/21 05:34:59;;;;;;;;;;;;;;;2.35;73.96;102251.16;106507;1267;67094;-89
2023/01/21 05:37:26;;;;;;;;;;;;;;;2.37;74.07;102247.62;106338;1266;122978;-90
2023/01/21 05:40:15;;;;;;;;;;;;;;;2.36;73.82;102249.13;106425;1266;61269;-88
2023/01/21 05:42:42;;;;;;;;;;;;;;;2.36;73.89;102249.09;106323;1267;124119;-89
2023/01/21 05:45:15;;;;;;;;;;;;;;;2.34;73.78;102251.06;106405;1266;74757;-89
2023/01/21 05:47:42;;;;;;;;;;;;;;;2.34;73.85;102252.60;106722;1267;125374;-89
2023/01/21 05:50:09;;;;;;;;;;;;;;;2.33;73.48;102247.55;106625;1266;73839;-88
2023/01/21 05:52:44;;;;;;;;;;;;;;;2.32;73.54;102243.27;106397;1265;61217;-90
2023/01/21 05:55:20;;;;;;;;;;;;;;;2.32;73.23;102240.30;106531;1266;124411;-89
2023/01/21 05:57:51;;;;;;;;;;;;;;;2.33;73.22;102235.92;106557;1267;73444;-90
2023/01/21 06:00:24;;;;;;;;;;;;;;;2.33;73.12;102236.41;106539;1267;124706;-89
2023/01/21 06:02:51;;;;;;;;;;;;;;;2.32;73.04;102229.27;106566;1267;72840;-88
2023/01/21 06:05:24;;;;;;;;;;;;;;;2.32;73.10;102235.64;106299;1267;59734;-88
2023/01/21 06:08:03;;;;;;;;;;;;;;;2.32;73.01;102231.71;106124;1267;124775;-89
2023/01/21 06:10:32;;;;;;;;;;;;;;;2.34;73.12;102228.23;106467;1266;74840;-89
2023/01/21 06:12:59;;;;;;;;;;;;;;;2.37;73.03;102226.35;106311;1267;124972;-88
2023/01/21 06:15:42;;;;;;;;;;;;;;;2.38;73.05;102232.81;106706;1267;72541;-87
2023/01/21 06:18:44;;;;;;;;;;;;;;;2.39;73.10;102226.88;106481;1267;124543;-91
2023/01/21 06:21:17;;;;;;;;;;;;;;;2.39;73.30;102234.84;106508;1266;61292;-88
2023/01/21 06:23:44;;;;;;;;;;;;;;;2.38;73.33;102237.67;106618;1266;147556;-87
2023/01/21 06:26:11;;;;;;;;;;;;;;;2.37;73.17;102239.71;106754;1267;66974;-87
2023/01/21 06:28:38;;;;;;;;;;;;;;;2.37;73.16;102238.30;106455;1266;72288;-87
2023/01/21 06:34:29;;;;;;;;;;;;;;;2.36;73.14;102251.95;106539;1266;61182;-85
2023/01/21 06:36:56;;;;;;;;;;;;;;;2.39;73.14;102241.55;106439;1267;124421;-82
2023/01/21 06:39:23;;;;;;;;;;;;;;;2.40;72.96;102242.34;106664;1266;67660;-81
2023/01/21 06:41:50;;;;;;;;;;;;;;;2.40;73.00;102249.08;106808;1267;124412;-81
2023/01/21 06:44:17;;;;;;;;;;;;;;;2.39;72.74;102243.46;106781;1266;59525;-81
2023/01/21 06:46:45;;;;;;;;;;;;;;;2.37;72.92;102243.84;106641;1266;59482;-81
2023/01/21 06:49:12;;;;;;;;;;;;;;;2.37;72.73;102246.78;106718;1266;124793;-82
2023/01/21 06:51:41;;;;;;;;;;;;;;;2.36;72.82;102243.43;106728;1267;65816;-81
2023/01/21 06:54:09;;;;;;;;;;;;;;;2.34;72.76;102254.17;106522;1266;124641;-81
2023/01/21 06:56:36;;;;;;;;;;;;;;;2.34;72.88;102255.54;106821;1267;61340;-81
2023/01/21 06:59:04;;;;;;;;;;;;;;;2.32;73.09;102256.77;106773;1266;61301;-83
2023/01/21 07:01:31;;;;;;;;;;;;;;;2.31;73.19;102271.80;106784;1269;124671;-81
2023/01/21 07:04:00;;;;;;;;;;;;;;;2.30;73.00;102263.59;106965;1266;67604;-83
2023/01/21 07:06:27;;;;;;;;;;;;;;;2.30;73.17;102275.02;106703;1267;125202;-83
2023/01/21 07:08:54;;;;;;;;;;;;;;;2.32;73.13;102288.34;106515;1270;61406;-82
2023/01/21 07:11:21;;;;;;;;;;;;;;;2.33;73.11;102279.27;106601;1265;61195;-84
2023/01/21 07:13:48;;;;;;;;;;;;;;;2.37;73.23;102272.04;106472;1268;124216;-85
2023/01/21 07:16:15;;;;;;;;;;;;;;;2.38;73.13;102291.08;106659;1266;67762;-83
2023/01/21 07:18:43;;;;;;;;;;;;;;;2.39;73.40;102268.27;106665;1266;124007;-82
2023/01/21 07:21:10;;;;;;;;;;;;;;;2.40;73.59;102270.08;106386;1267;61386;-82
2023/01/21 07:23:38;;;;;;;;;;;;;;;2.41;73.69;102277.58;106551;1266;61387;-82
2023/01/21 07:26:05;;;;;;;;;;;;;;;2.42;73.66;102273.77;106456;1267;74343;-82
2023/01/21 07:28:32;;;;;;;;;;;;;;;2.40;73.59;102282.89;106831;1267;67010;-81
2023/01/21 07:30:59;;;;;;;;;;;;;;;2.43;73.64;102282.31;106695;1266;124884;-81
2023/01/21 07:33:26;;;;;;;;;;;;;;;2.45;73.85;102272.27;106498;1265;61263;-82
2023/01/21 07:35:55;;;;;;;;;;;;;;;2.48;73.95;102275.23;106431;1267;125582;-82
2023/01/21 07:38:22;;;;;;;;;;;;;;;2.49;73.82;102279.46;106766;1269;76178;-82
2023/01/21 07:40:49;;;;;;;;;;;;;;;2.49;73.70;102285.54;106733;1267;65208;-82
2023/01/21 07:43:20;;;;;;;;;;;;;;;2.50;73.82;102276.26;106412;1267;125797;-82
2023/01/21 07:45:47;;;;;;;;;;;;;;;2.50;73.77;102268.67;106818;1265;61198;-82
2023/01/21 07:48:14;;;;;;;;;;;;;;;2.51;73.76;102278.46;106711;1266;125446;-82
2023/01/21 07:50:41;;;;;;;;;;;;;;;2.53;73.68;102266.13;106784;1267;72823;-81
2023/01/21 07:53:09;;;;;;;;;;;;;;;2.56;73.82;102269.48;106878;1267;66091;-81
2023/01/21 07:55:37;;;;;;;;;;;;;;;2.58;73.70;102268.95;106469;1266;124636;-81
2023/01/21 07:58:10;;;;;;;;;;;;;;;2.59;73.55;102273.89;106789;1267;61267;-83
2023/01/21 08:00:37;;;;;;;;;;;;;;;2.59;73.48;102279.40;106512;1266;124536;-87
2023/01/21 08:03:13;;;;;;;;;;;;;;;2.59;73.45;102301.11;106456;1266;74711;-87
2023/01/21 08:05:40;;;;;;;;;;;;;;;2.60;73.55;102273.46;106475;1270;67095;-83
2023/01/21 08:08:08;;;;;;;;;;;;;;;2.62;73.60;102279.64;106534;1266;124665;-83
2023/01/21 08:10:37;;;;;;;;;;;;;;;2.63;73.63;102286.39;106700;1267;61331;-81
2023/01/21 08:13:06;;;;;;;;;;;;;;;2.64;73.57;102281.23;106504;1266;124606;-84
2023/01/21 08:15:41;;;;;;;;;;;;;;;2.66;73.49;102277.59;106196;1265;75062;-84
2023/01/21 08:18:14;;;;;;;;;;;;;;;2.67;73.37;102275.73;106174;1267;124127;-87
2023/01/21 08:20:55;;;;;;;;;;;;;;;2.66;73.06;102279.33;106208;1267;72368;-83
2023/01/21 08:23:25;;;;;;;;;;;;;;;2.65;73.15;102285.31;106322;1266;61263;-83
2023/01/21 08:26:00;;;;;;;;;;;;;;;2.65;73.14;102279.78;106265;1266;125446;-83
2023/01/21 08:28:59;;;;;;;;;;;;;;;;;;;;;
2023/01/21 08:31:38;;;;;;;;;;;;;;;2.66;73.48;102277.09;105685;1267;124700;-85
2023/01/21 08:34:12;;;;;;;;;;;;;;;2.67;73.56;102273.32;106178;1270;61340;-82
2023/01/21 08:36:46;;;;;;;;;;;;;;;2.70;73.44;102277.27;106221;1267;61295;-82
2023/01/21 08:39:17;;;;;;;;;;;;;;;2.72;73.65;102268.20;106690;1266;61260;-82
2023/01/21 08:41:44;;;;;;;;;;;;;;;2.73;73.47;102271.37;107027;1266;74454;-82
2023/01/21 08:44:11;;;;;;;;;;;;;;;2.72;73.63;102274.44;106683;1267;124573;-81
2023/01/21 08:46:38;;;;;;;;;;;;;;;2.72;73.55;102271.63;106461;1267;71755;-81
2023/01/21 08:49:06;;;;;;;;;;;;;;;2.73;73.65;102277.83;106623;1267;125202;-85
2023/01/21 08:51:34;;;;;;;;;;;;;;;2.74;73.52;102276.65;106675;1267;61144;-82
2023/01/21 08:54:04;;;;;;;;;;;;;;;2.77;73.70;102280.18;106661;1266;124947;-80
2023/01/21 08:56:33;;;;;;;;;;;;;;;2.80;73.90;102275.23;106807;1266;65929;-82
2023/01/21 08:59:01;;;;;;;;;;;;;;;2.83;73.99;102268.95;107401;1266;71417;-82
2023/01/21 09:01:28;;;;;;;;;;;;;;;2.86;73.84;102274.20;106659;1265;124994;-81
2023/01/21 09:03:56;;;;;;;;;;;;;;;2.88;73.64;102271.21;106919;1266;61133;-81
2023/01/21 09:06:27;;;;;;;;;;;;;;;2.89;73.80;102268.71;106897;1267;125519;-81
2023/01/21 09:08:54;;;;;;;;;;;;;;;2.90;73.95;102280.74;106697;1269;66816;-84
2023/01/21 09:11:21;;;;;;;;;;;;;;;2.88;73.90;102263.77;106942;1267;72830;-83
2023/01/21 09:13:48;;;;;;;;;;;;;;;2.87;73.92;102261.41;106799;1269;125403;-84
2023/01/21 09:16:21;;;;;;;;;;;;;;;2.86;74.06;102265.84;106475;1266;61320;-85
2023/01/21 09:18:50;;;;;;;;;;;;;;;2.86;74.15;102251.31;106551;1266;124949;-84
2023/01/21 09:21:17;;;;;;;;;;;;;;;2.86;74.07;102262.24;106490;1267;65898;-83
2023/01/21 09:23:46;;;;;;;;;;;;;;;2.85;73.97;102251.54;106687;1266;71049;-83
2023/01/21 09:26:33;;;;;;;;;;;;;;;2.83;73.84;102261.10;106648;1266;61183;-83
2023/01/21 09:29:06;;;;;;;;;;;;;;;2.83;73.86;102244.59;106777;1269;61367;-82
2023/01/21 09:31:47;;;;;;;;;;;;;;;2.85;74.10;102231.98;106625;1267;125436;-83
2023/01/21 09:34:14;;;;;;;;;;;;;;;2.89;74.10;102219.11;106981;1266;65624;-83
2023/01/21 09:36:41;;;;;;;;;;;;;;;2.90;74.03;102220.26;106932;1267;124948;-80
2023/01/21 09:39:08;;;;;;;;;;;;;;;2.94;74.10;102223.45;106849;1272;61462;-81
2023/01/21 09:41:45;;;;;;;;;;;;;;;2.97;74.22;102223.70;106420;1267;61323;-81
2023/01/21 09:44:16;;;;;;;;;;;;;;;2.99;74.30;102211.39;106335;1269;125459;-81
2023/01/21 09:47:02;;;;;;;;;;;;;;;3.01;74.25;102204.05;106497;1265;66901;-82
2023/01/21 09:49:31;;;;;;;;;;;;;;;3.02;74.27;102196.67;106669;1265;124187;-85
2023/01/21 09:53:05;;;;;;;;;;;;;;;3.02;74.35;102192.40;106715;1267;61215;-83
2023/01/21 09:55:46;;;;;;;;;;;;;;;3.03;74.33;102207.55;106227;1267;125851;-82
2023/01/21 09:58:20;;;;;;;;;;;;;;;3.02;74.43;102189.74;106368;1267;75634;-84
2023/01/21 10:00:53;;;;;;;;;;;;;;;3.03;74.63;102194.69;106643;1267;125262;-87
2023/01/21 10:03:32;;;;;;;;;;;;;;;3.04;74.51;102180.37;106984;1267;72034;-82
2023/01/21 10:06:07;;;;;;;;;;;;;;;3.05;74.43;102178.55;106826;1268;125369;-84
2023/01/21 10:08:53;;;;;;;;;;;;;;;3.06;74.61;102186.62;106609;1266;60244;-86
2023/01/21 10:11:46;;;;;;;;;;;;;;;;;;;;;
2023/01/21 10:14:47;;;;;;;;;;;;;;;3.09;74.39;102183.40;108163;1266;66933;-82
2023/01/21 10:17:36;;;;;;;;;;;;;;;3.11;74.34;102189.14;106812;1266;73251;-80
2023/01/21 10:20:13;;;;;;;;;;;;;;;3.16;74.54;102194.45;106647;1267;124675;-81
2023/01/21 10:22:45;;;;;;;;;;;;;;;3.16;74.68;102182.55;107043;1266;60282;-83
2023/01/21 10:25:25;;;;;;;;;;;;;;;3.24;74.50;102186.99;106520;1267;125150;-86
2023/01/21 10:27:53;;;;;;;;;;;;;;;3.31;74.45;102201.05;106562;1270;69196;-84
2023/01/21 10:30:26;;;;;;;;;;;;;;;3.36;74.42;102185.98;106169;1267;125217;-82
2023/01/21 10:32:53;;;;;;;;;;;;;;;3.40;74.27;102180.54;106576;1267;59335;-81
2023/01/21 10:35:40;;;;;;;;;;;;;;;3.42;74.16;102190.45;106606;1267;61198;-83
2023/01/21 10:38:19;;;;;;;;;;;;;;;3.46;74.25;102192.32;106175;1266;124659;-82
2023/01/21 10:40:54;;;;;;;;;;;;;;;3.49;74.17;102176.08;106303;1267;66922;-85
2023/01/21 10:43:24;;;;;;;;;;;;;;;3.52;74.30;102182.70;106505;1267;124227;-83
2023/01/21 10:46:06;;;;;;;;;;;;;;;3.55;74.36;102175.13;106601;1267;61384;-83
2023/01/21 10:48:39;;;;;;;;;;;;;;;3.60;74.41;102174.50;106682;1267;124459;-83
2023/01/21 10:51:12;;;;;;;;;;;;;;;3.63;74.23;102187.17;106383;1266;74784;-82
2023/01/21 10:54:07;;;;;;;;;;;;;;;3.63;74.15;102179.53;106496;1268;67348;-85
2023/01/21 10:56:41;;;;;;;;;;;;;;;3.63;74.12;102181.64;106514;1267;72867;-84
2023/01/21 10:59:09;;;;;;;;;;;;;;;3.62;74.07;102169.56;106588;1266;61316;-84
2023/01/21 11:01:38;;;;;;;;;;;;;;;3.60;74.10;102184.88;106735;1267;125386;-83
2023/01/21 11:04:13;;;;;;;;;;;;;;;3.57;74.01;102176.10;106850;1267;73921;-83
2023/01/21 11:06:40;;;;;;;;;;;;;;;3.48;74.11;102172.14;107379;1266;124638;-83
2023/01/21 11:09:09;;;;;;;;;;;;;;;3.44;74.28;102163.20;106447;1270;73319;-83
2023/01/21 11:11:41;;;;;;;;;;;;;;;3.41;74.31;102167.80;106491;1269;61883;-83
2023/01/21 11:14:09;;;;;;;;;;;;;;;3.34;74.32;102166.39;106384;1267;124806;-83
2023/01/21 11:16:44;;;;;;;;;;;;;;;3.27;74.36;102168.81;106370;1267;75775;-83
2023/01/21 11:19:32;;;;;;;;;;;;;;;3.19;74.35;102158.00;106518;1267;124743;-83
2023/01/21 11:22:05;;;;;;;;;;;;;;;3.11;74.47;102178.37;106606;1267;72702;-81
2023/01/21 11:24:42;;;;;;;;;;;;;;;3.07;74.58;102170.95;106622;1267;125330;-81
2023/01/21 11:27:42;;;;;;;;;;;;;;;3.06;74.74;102155.43;106486;1267;61292;-81
2023/01/21 11:30:32;;;;;;;;;;;;;;;3.05;74.74;102171.60;105872;1270;125049;-83
2023/01/21 11:33:19;;;;;;;;;;;;;;;3.01;74.59;102159.00;106390;1270;65167;-81
2023/01/21 11:35:46;;;;;;;;;;;;;;;3.01;74.55;102153.75;106255;1273;73137;-84
2023/01/21 11:38:28;;;;;;;;;;;;;;;3.00;74.70;102155.79;106208;1275;124364;-83
2023/01/21 11:41:13;;;;;;;;;;;;;;;3.01;74.65;102154.31;106474;1270;61163;-81
2023/01/21 11:43:44;;;;;;;;;;;;;;;3.00;74.60;102158.92;106240;1273;124837;-83
2023/01/21 11:46:21;;;;;;;;;;;;;;;3.00;74.72;102155.83;106282;1273;66667;-83
2023/01/21 11:48:52;;;;;;;;;;;;;;;3.01;74.89;102161.29;106359;1270;125057;-81
2023/01/21 11:51:19;;;;;;;;;;;;;;;3.02;74.71;102162.38;106522;1271;61205;-81
2023/01/21 11:53:46;;;;;;;;;;;;;;;3.03;74.73;102168.89;106405;1273;61348;-83
2023/01/21 11:56:15;;;;;;;;;;;;;;;3.06;74.83;102164.75;106295;1273;124746;-81
2023/01/21 11:58:42;;;;;;;;;;;;;;;3.06;74.68;102162.54;106363;1273;67088;-81
2023/01/21 12:01:16;;;;;;;;;;;;;;;3.06;74.42;102174.17;106404;1272;125171;-82
2023/01/21 12:03:58;;;;;;;;;;;;;;;3.08;74.23;102150.69;106651;1276;59673;-81
2023/01/21 12:06:30;;;;;;;;;;;;;;;3.10;74.24;102156.40;106829;1269;124164;-81
2023/01/21 12:09:02;;;;;;;;;;;;;;;3.11;74.38;102148.69;106788;1271;73419;-82
2023/01/21 12:11:29;;;;;;;;;;;;;;;3.11;74.24;102158.95;106749;1267;65864;-82
2023/01/21 12:14:16;;;;;;;;;;;;;;;3.10;74.15;102150.20;106533;1267;125375;-82
2023/01/21 12:17:06;;;;;;;;;;;;;;;3.14;73.89;102152.16;106605;1269;61269;-85
2023/01/21 12:19:53;;;;;;;;;;;;;;;3.14;73.85;102157.56;106335;1267;126407;-82
2023/01/21 12:22:29;;;;;;;;;;;;;;;3.15;73.86;102158.67;106705;1267;73441;-83
2023/01/21 12:25:14;;;;;;;;;;;;;;;3.16;73.78;102160.17;106346;1268;124940;-84
2023/01/21 12:27:48;;;;;;;;;;;;;;;3.15;73.55;102172.22;106616;1268;73297;-84
2023/01/21 12:30:35;;;;;;;;;;;;;;;3.14;73.60;102167.48;106610;1267;124826;-84
2023/01/21 12:33:22;;;;;;;;;;;;;;;3.14;73.47;102157.93;106800;1265;59934;-84
2023/01/21 12:35:54;;;;;;;;;;;;;;;3.14;73.45;102163.79;108258;1268;76121;-82
2023/01/21 12:38:34;;;;;;;;;;;;;;;3.07;73.83;102165.16;106734;1270;124799;-82
2023/01/21 12:41:04;;;;;;;;;;;;;;;2.94;74.21;102162.25;106513;1272;73663;-84
2023/01/21 12:43:33;;;;;;;;;;;;;;;2.85;74.17;102181.35;106388;1266;124655;-81
2023/01/21 12:46:03;;;;;;;;;;;;;;;2.64;74.24;102179.30;106243;1267;61230;-82
2023/01/21 12:48:38;;;;;;;;;;;;;;;2.37;75.01;102165.77;106290;1267;125309;-83
2023/01/21 12:51:07;;;;;;;;;;;;;;;2.14;75.87;102194.39;106205;1266;67053;-83
2023/01/21 12:53:34;;;;;;;;;;;;;;;1.92;77.95;102197.87;106371;1267;73257;-84
2023/01/21 12:56:22;;;;;;;;;;;;;;;1.48;81.32;102214.98;106390;1269;124770;-84
2023/01/21 12:59:01;;;;;;;;;;;;;;;1.08;82.60;102187.21;106517;1267;61301;-84
2023/01/21 13:01:40;;;;;;;;;;;;;;;0.97;85.95;102191.23;106388;1267;125186;-82
2023/01/21 13:04:07;;;;;;;;;;;;;;;0.86;87.28;102199.77;106702;1266;66873;-83
2023/01/21 13:06:36;;;;;;;;;;;;;;;0.74;87.91;102185.98;106574;1266;125025;-81
2023/01/21 13:09:19;;;;;;;;;;;;;;;0.70;88.54;102192.04;106681;1266;61359;-83
2023/01/21 13:11:49;;;;;;;;;;;;;;;0.70;89.15;102198.80;106663;1267;61081;-82
2023/01/21 13:14:19;;;;;;;;;;;;;;;0.68;89.22;102206.38;106543;1267;124964;-81
2023/01/21 13:16:53;;;;;;;;;;;;;;;0.68;89.47;102197.00;106672;1268;66535;-81